Willow, Kentucky
Current Conditions -  °F | °C
As of 6:55 PM on Saturday 25 Oct 2014 (Local Time) from KFGX Reporting Station
Clear Clear  
Wind Chill: 62°   Ceiling: Unl
Heat Index: 62°   Visibility: 10mi
Dew Point: 57°   Wind: 7mph
Humidity: 83%   Direction: 240°WSW
Pressure: 29.95"   Gusts: NA
Location:  38.6516°N, 84.0942°W
Report Text: KFGX 252255Z AUTO 24006KT 10SM CLR 17/14 A2995 RMK AO2 T01690140
Loading
Personal Weather Stations






























Interactive Weather Map
Tropical Storm Tracking
New forecast layout! Learn more

10-Day Weather Forecast

Advertisements
Track Severe Weather on mobile